sensor_id;sensor_type;location;lat;lon;timestamp;temperature;humidity
34147;DHT22;20423;49.448;9.056;2022-11-21T00:00:30;3.80;99.90
34147;DHT22;20423;49.448;9.056;2022-11-21T00:02:59;3.80;99.90
34147;DHT22;20423;49.448;9.056;2022-11-21T00:05:26;3.90;99.90
34147;DHT22;20423;49.448;9.056;2022-11-21T00:07:53;3.90;99.90
34147;DHT22;20423;49.448;9.056;2022-11-21T00:10:31;3.80;99.90
34147;DHT22;20423;49.448;9.056;2022-11-21T00:12:57;3.80;99.90
34147;DHT22;20423;49.448;9.056;2022-11-21T00:15:24;3.80;99.90
34147;DHT22;20423;49.448;9.056;2022-11-21T00:17:51;3.90;99.90
34147;DHT22;20423;49.448;9.056;2022-11-21T00:20:18;3.80;99.90
34147;DHT22;20423;49.448;9.056;2022-11-21T00:22:50;3.90;99.90
34147;DHT22;20423;49.448;9.056;2022-11-21T00:25:15;3.80;99.90
34147;DHT22;20423;49.448;9.056;2022-11-21T00:27:41;3.80;99.90
34147;DHT22;20423;49.448;9.056;2022-11-21T00:30:08;3.80;99.90
34147;DHT22;20423;49.448;9.056;2022-11-21T00:32:34;3.80;99.90
34147;DHT22;20423;49.448;9.056;2022-11-21T00:35:00;3.80;99.90
34147;DHT22;20423;49.448;9.056;2022-11-21T00:37:26;3.80;99.90
34147;DHT22;20423;49.448;9.056;2022-11-21T00:39:53;3.90;99.90
34147;DHT22;20423;49.448;9.056;2022-11-21T00:42:18;3.90;99.90
34147;DHT22;20423;49.448;9.056;2022-11-21T00:44:44;3.90;99.90
34147;DHT22;20423;49.448;9.056;2022-11-21T00:47:10;3.90;99.90
34147;DHT22;20423;49.448;9.056;2022-11-21T00:49:36;3.90;99.90
34147;DHT22;20423;49.448;9.056;2022-11-21T00:52:01;3.90;99.90
34147;DHT22;20423;49.448;9.056;2022-11-21T00:54:27;3.90;99.90
34147;DHT22;20423;49.448;9.056;2022-11-21T00:56:53;3.90;99.90
34147;DHT22;20423;49.448;9.056;2022-11-21T00:59:19;3.90;99.90
34147;DHT22;20423;49.448;9.056;2022-11-21T01:01:45;3.90;99.90
34147;DHT22;20423;49.448;9.056;2022-11-21T01:04:10;3.90;99.90
34147;DHT22;20423;49.448;9.056;2022-11-21T01:06:37;3.90;99.90
34147;DHT22;20423;49.448;9.056;2022-11-21T01:09:03;3.90;99.90
34147;DHT22;20423;49.448;9.056;2022-11-21T01:11:29;3.90;99.90
34147;DHT22;20423;49.448;9.056;2022-11-21T01:13:54;3.80;99.90
34147;DHT22;20423;49.448;9.056;2022-11-21T01:16:23;3.90;99.90
34147;DHT22;20423;49.448;9.056;2022-11-21T01:18:49;3.90;99.90
34147;DHT22;20423;49.448;9.056;2022-11-21T01:21:20;3.90;99.90
34147;DHT22;20423;49.448;9.056;2022-11-21T01:23:47;3.90;99.90
34147;DHT22;20423;49.448;9.056;2022-11-21T01:26:18;3.90;99.90
34147;DHT22;20423;49.448;9.056;2022-11-21T01:28:45;3.90;99.90
34147;DHT22;20423;49.448;9.056;2022-11-21T01:31:13;3.90;99.90
34147;DHT22;20423;49.448;9.056;2022-11-21T01:33:39;3.80;99.90
34147;DHT22;20423;49.448;9.056;2022-11-21T01:36:13;3.80;99.90
34147;DHT22;20423;49.448;9.056;2022-11-21T01:38:41;3.80;99.90
34147;DHT22;20423;49.448;9.056;2022-11-21T01:41:08;3.90;99.90
34147;DHT22;20423;49.448;9.056;2022-11-21T01:43:34;3.80;99.90
34147;DHT22;20423;49.448;9.056;2022-11-21T01:54:17;3.90;99.90
34147;DHT22;20423;49.448;9.056;2022-11-21T01:56:48;3.80;99.90
34147;DHT22;20423;49.448;9.056;2022-11-21T01:59:22;3.80;99.90
34147;DHT22;20423;49.448;9.056;2022-11-21T02:01:50;3.80;99.90
34147;DHT22;20423;49.448;9.056;2022-11-21T02:04:19;3.80;99.90
34147;DHT22;20423;49.448;9.056;2022-11-21T02:06:47;3.80;99.90
34147;DHT22;20423;49.448;9.056;2022-11-21T02:09:13;3.80;99.90
34147;DHT22;20423;49.448;9.056;2022-11-21T02:11:47;3.90;99.90
34147;DHT22;20423;49.448;9.056;2022-11-21T02:14:14;3.80;99.90
34147;DHT22;20423;49.448;9.056;2022-11-21T02:16:40;3.80;99.90
34147;DHT22;20423;49.448;9.056;2022-11-21T02:19:10;3.80;99.90
34147;DHT22;20423;49.448;9.056;2022-11-21T02:21:53;3.80;99.90
34147;DHT22;20423;49.448;9.056;2022-11-21T02:24:46;3.80;99.90
34147;DHT22;20423;49.448;9.056;2022-11-21T02:27:14;3.80;99.90
34147;DHT22;20423;49.448;9.056;2022-11-21T02:29:41;3.80;99.90
34147;DHT22;20423;49.448;9.056;2022-11-21T02:32:07;3.90;99.90
34147;DHT22;20423;49.448;9.056;2022-11-21T02:34:45;3.80;99.90
34147;DHT22;20423;49.448;9.056;2022-11-21T02:37:36;3.80;99.90
34147;DHT22;20423;49.448;9.056;2022-11-21T02:40:07;3.80;99.90
34147;DHT22;20423;49.448;9.056;2022-11-21T02:45:39;3.80;99.90
34147;DHT22;20423;49.448;9.056;2022-11-21T02:48:04;3.80;99.90
34147;DHT22;20423;49.448;9.056;2022-11-21T02:50:32;3.80;99.90
34147;DHT22;20423;49.448;9.056;2022-11-21T02:52:59;3.80;99.90
34147;DHT22;20423;49.448;9.056;2022-11-21T02:55:46;3.70;99.90
34147;DHT22;20423;49.448;9.056;2022-11-21T02:58:12;3.70;99.90
34147;DHT22;20423;49.448;9.056;2022-11-21T03:00:39;3.70;99.90
34147;DHT22;20423;49.448;9.056;2022-11-21T03:03:06;3.70;99.90
34147;DHT22;20423;49.448;9.056;2022-11-21T03:05:47;3.70;99.90
34147;DHT22;20423;49.448;9.056;2022-11-21T03:08:13;3.70;99.90
34147;DHT22;20423;49.448;9.056;2022-11-21T03:10:38;3.70;99.90
34147;DHT22;20423;49.448;9.056;2022-11-21T03:13:04;3.70;99.90
34147;DHT22;20423;49.448;9.056;2022-11-21T03:15:32;3.70;99.90
34147;DHT22;20423;49.448;9.056;2022-11-21T03:17:58;3.70;99.90
34147;DHT22;20423;49.448;9.056;2022-11-21T03:20:28;3.70;99.90
34147;DHT22;20423;49.448;9.056;2022-11-21T03:22:53;3.70;99.90
34147;DHT22;20423;49.448;9.056;2022-11-21T03:25:19;3.80;99.90
34147;DHT22;20423;49.448;9.056;2022-11-21T03:27:45;3.80;99.90
34147;DHT22;20423;49.448;9.056;2022-11-21T03:30:11;3.80;99.90
34147;DHT22;20423;49.448;9.056;2022-11-21T03:32:37;3.80;99.90
34147;DHT22;20423;49.448;9.056;2022-11-21T03:35:03;3.80;99.90
34147;DHT22;20423;49.448;9.056;2022-11-21T03:37:29;3.80;99.90
34147;DHT22;20423;49.448;9.056;2022-11-21T03:39:55;3.80;99.90
34147;DHT22;20423;49.448;9.056;2022-11-21T03:42:20;3.80;99.90
34147;DHT22;20423;49.448;9.056;2022-11-21T03:44:46;3.80;99.90
34147;DHT22;20423;49.448;9.056;2022-11-21T03:47:11;3.80;99.90
34147;DHT22;20423;49.448;9.056;2022-11-21T03:49:37;3.80;99.90
34147;DHT22;20423;49.448;9.056;2022-11-21T03:52:03;3.80;99.90
34147;DHT22;20423;49.448;9.056;2022-11-21T03:54:28;3.80;99.90
34147;DHT22;20423;49.448;9.056;2022-11-21T03:56:54;3.80;99.90
34147;DHT22;20423;49.448;9.056;2022-11-21T03:59:20;3.80;99.90
34147;DHT22;20423;49.448;9.056;2022-11-21T04:01:45;3.80;99.90
34147;DHT22;20423;49.448;9.056;2022-11-21T04:04:11;3.80;99.90
34147;DHT22;20423;49.448;9.056;2022-11-21T04:10:12;3.80;99.90
34147;DHT22;20423;49.448;9.056;2022-11-21T04:12:38;3.80;99.90
34147;DHT22;20423;49.448;9.056;2022-11-21T04:15:04;3.80;99.90
34147;DHT22;20423;49.448;9.056;2022-11-21T04:17:30;3.80;99.90
34147;DHT22;20423;49.448;9.056;2022-11-21T04:20:11;3.80;99.90
34147;DHT22;20423;49.448;9.056;2022-11-21T04:22:37;3.80;99.90
34147;DHT22;20423;49.448;9.056;2022-11-21T04:25:03;3.70;99.90
34147;DHT22;20423;49.448;9.056;2022-11-21T04:27:28;3.70;99.90
34147;DHT22;20423;49.448;9.056;2022-11-21T04:29:54;3.70;99.90
34147;DHT22;20423;49.448;9.056;2022-11-21T04:32:20;3.70;99.90
34147;DHT22;20423;49.448;9.056;2022-11-21T04:34:54;3.70;99.90
34147;DHT22;20423;49.448;9.056;2022-11-21T04:37:20;3.80;99.90
34147;DHT22;20423;49.448;9.056;2022-11-21T04:39:46;3.80;99.90
34147;DHT22;20423;49.448;9.056;2022-11-21T04:42:11;3.80;99.90
34147;DHT22;20423;49.448;9.056;2022-11-21T04:44:37;3.80;99.90
34147;DHT22;20423;49.448;9.056;2022-11-21T04:47:02;3.80;99.90
34147;DHT22;20423;49.448;9.056;2022-11-21T04:49:28;3.80;99.90
34147;DHT22;20423;49.448;9.056;2022-11-21T04:51:54;3.80;99.90
34147;DHT22;20423;49.448;9.056;2022-11-21T04:54:19;3.80;99.90
34147;DHT22;20423;49.448;9.056;2022-11-21T04:56:45;3.80;99.90
34147;DHT22;20423;49.448;9.056;2022-11-21T04:59:11;3.70;99.90
34147;DHT22;20423;49.448;9.056;2022-11-21T05:01:37;3.80;99.90
34147;DHT22;20423;49.448;9.056;2022-11-21T05:04:03;3.80;99.90
34147;DHT22;20423;49.448;9.056;2022-11-21T05:06:28;3.70;99.90
34147;DHT22;20423;49.448;9.056;2022-11-21T05:08:54;3.70;99.90
34147;DHT22;20423;49.448;9.056;2022-11-21T05:11:20;3.70;99.90
34147;DHT22;20423;49.448;9.056;2022-11-21T05:14:04;3.70;99.90
34147;DHT22;20423;49.448;9.056;2022-11-21T05:16:33;3.70;99.90
34147;DHT22;20423;49.448;9.056;2022-11-21T05:18:59;3.70;99.90
34147;DHT22;20423;49.448;9.056;2022-11-21T05:24:43;3.70;99.90
34147;DHT22;20423;49.448;9.056;2022-11-21T05:27:09;3.70;99.90
34147;DHT22;20423;49.448;9.056;2022-11-21T05:29:35;3.70;99.90
34147;DHT22;20423;49.448;9.056;2022-11-21T05:32:00;3.70;99.90
34147;DHT22;20423;49.448;9.056;2022-11-21T05:34:26;3.70;99.90
34147;DHT22;20423;49.448;9.056;2022-11-21T05:36:58;3.70;99.90
34147;DHT22;20423;49.448;9.056;2022-11-21T05:39:24;3.70;99.90
34147;DHT22;20423;49.448;9.056;2022-11-21T05:41:50;3.70;99.90
34147;DHT22;20423;49.448;9.056;2022-11-21T05:44:16;3.70;99.90
34147;DHT22;20423;49.448;9.056;2022-11-21T05:49:54;3.70;99.90
34147;DHT22;20423;49.448;9.056;2022-11-21T05:52:20;3.70;99.90
34147;DHT22;20423;49.448;9.056;2022-11-21T05:54:45;3.70;99.90
34147;DHT22;20423;49.448;9.056;2022-11-21T05:57:11;3.70;99.90
34147;DHT22;20423;49.448;9.056;2022-11-21T05:59:36;3.70;99.90
34147;DHT22;20423;49.448;9.056;2022-11-21T06:02:02;3.70;99.90
34147;DHT22;20423;49.448;9.056;2022-11-21T06:04:46;3.70;99.90
34147;DHT22;20423;49.448;9.056;2022-11-21T06:07:12;3.70;99.90
34147;DHT22;20423;49.448;9.056;2022-11-21T06:09:38;3.70;99.90
34147;DHT22;20423;49.448;9.056;2022-11-21T06:12:25;3.60;99.90
34147;DHT22;20423;49.448;9.056;2022-11-21T06:14:51;3.70;99.90
34147;DHT22;20423;49.448;9.056;2022-11-21T06:17:17;3.70;99.90
34147;DHT22;20423;49.448;9.056;2022-11-21T06:19:42;3.70;99.90
34147;DHT22;20423;49.448;9.056;2022-11-21T06:22:08;3.70;99.90
34147;DHT22;20423;49.448;9.056;2022-11-21T06:24:34;3.60;99.90
34147;DHT22;20423;49.448;9.056;2022-11-21T06:26:59;3.70;99.90
34147;DHT22;20423;49.448;9.056;2022-11-21T06:29:25;3.70;99.90
34147;DHT22;20423;49.448;9.056;2022-11-21T06:31:50;3.70;99.90
34147;DHT22;20423;49.448;9.056;2022-11-21T06:34:16;3.70;99.90
34147;DHT22;20423;49.448;9.056;2022-11-21T06:36:42;3.60;99.90
34147;DHT22;20423;49.448;9.056;2022-11-21T06:39:09;3.60;99.90
34147;DHT22;20423;49.448;9.056;2022-11-21T06:41:34;3.60;99.90
34147;DHT22;20423;49.448;9.056;2022-11-21T06:44:00;3.60;99.90
34147;DHT22;20423;49.448;9.056;2022-11-21T06:46:54;3.60;99.90
34147;DHT22;20423;49.448;9.056;2022-11-21T06:49:20;3.60;99.90
34147;DHT22;20423;49.448;9.056;2022-11-21T06:51:46;3.60;99.90
34147;DHT22;20423;49.448;9.056;2022-11-21T06:54:12;3.60;99.90
34147;DHT22;20423;49.448;9.056;2022-11-21T06:57:03;3.60;99.90
34147;DHT22;20423;49.448;9.056;2022-11-21T06:59:29;3.60;99.90
34147;DHT22;20423;49.448;9.056;2022-11-21T07:01:54;3.60;99.90
34147;DHT22;20423;49.448;9.056;2022-11-21T07:04:20;3.60;99.90
34147;DHT22;20423;49.448;9.056;2022-11-21T07:06:45;3.60;99.90
34147;DHT22;20423;49.448;9.056;2022-11-21T07:09:11;3.60;99.90
34147;DHT22;20423;49.448;9.056;2022-11-21T07:11:37;3.60;99.90
34147;DHT22;20423;49.448;9.056;2022-11-21T07:14:03;3.60;99.90
34147;DHT22;20423;49.448;9.056;2022-11-21T07:16:28;3.70;99.90
34147;DHT22;20423;49.448;9.056;2022-11-21T07:18:57;3.70;99.90
34147;DHT22;20423;49.448;9.056;2022-11-21T07:21:23;3.60;99.90
34147;DHT22;20423;49.448;9.056;2022-11-21T07:23:48;3.70;99.90
34147;DHT22;20423;49.448;9.056;2022-11-21T07:26:14;3.70;99.90
34147;DHT22;20423;49.448;9.056;2022-11-21T07:28:40;3.70;99.90
34147;DHT22;20423;49.448;9.056;2022-11-21T07:31:05;3.70;99.90
34147;DHT22;20423;49.448;9.056;2022-11-21T07:33:31;3.70;99.90
34147;DHT22;20423;49.448;9.056;2022-11-21T07:35:57;3.70;99.90
34147;DHT22;20423;49.448;9.056;2022-11-21T07:38:26;3.70;99.90
34147;DHT22;20423;49.448;9.056;2022-11-21T07:40:52;3.70;99.90
34147;DHT22;20423;49.448;9.056;2022-11-21T07:43:17;3.70;99.90
34147;DHT22;20423;49.448;9.056;2022-11-21T07:45:43;3.70;99.90
34147;DHT22;20423;49.448;9.056;2022-11-21T07:48:09;3.60;99.90
34147;DHT22;20423;49.448;9.056;2022-11-21T07:50:35;3.70;99.90
34147;DHT22;20423;49.448;9.056;2022-11-21T07:53:03;3.70;99.90
34147;DHT22;20423;49.448;9.056;2022-11-21T07:55:29;3.70;99.90
34147;DHT22;20423;49.448;9.056;2022-11-21T07:58:09;3.70;99.90
34147;DHT22;20423;49.448;9.056;2022-11-21T08:00:38;3.70;99.90
34147;DHT22;20423;49.448;9.056;2022-11-21T08:03:24;3.60;99.90
34147;DHT22;20423;49.448;9.056;2022-11-21T08:05:50;3.60;99.90
34147;DHT22;20423;49.448;9.056;2022-11-21T08:08:21;3.70;99.90
34147;DHT22;20423;49.448;9.056;2022-11-21T08:10:46;3.70;99.90
34147;DHT22;20423;49.448;9.056;2022-11-21T08:13:13;3.70;99.90
34147;DHT22;20423;49.448;9.056;2022-11-21T08:15:39;3.70;99.90
34147;DHT22;20423;49.448;9.056;2022-11-21T08:18:16;3.70;99.90
34147;DHT22;20423;49.448;9.056;2022-11-21T08:20:45;3.60;99.90
34147;DHT22;20423;49.448;9.056;2022-11-21T08:23:10;3.60;99.90
34147;DHT22;20423;49.448;9.056;2022-11-21T08:25:37;3.60;99.90
34147;DHT22;20423;49.448;9.056;2022-11-21T08:28:04;3.60;99.90
34147;DHT22;20423;49.448;9.056;2022-11-21T08:30:31;3.60;99.90
34147;DHT22;20423;49.448;9.056;2022-11-21T08:32:57;3.70;99.90
34147;DHT22;20423;49.448;9.056;2022-11-21T08:35:24;3.60;99.90
34147;DHT22;20423;49.448;9.056;2022-11-21T08:37:58;3.60;99.90
34147;DHT22;20423;49.448;9.056;2022-11-21T08:40:36;3.60;99.90
34147;DHT22;20423;49.448;9.056;2022-11-21T08:43:04;3.60;99.90
34147;DHT22;20423;49.448;9.056;2022-11-21T08:45:31;3.60;99.90
34147;DHT22;20423;49.448;9.056;2022-11-21T08:47:58;3.60;99.90
34147;DHT22;20423;49.448;9.056;2022-11-21T08:50:23;3.60;99.90
34147;DHT22;20423;49.448;9.056;2022-11-21T08:52:49;3.60;99.90
34147;DHT22;20423;49.448;9.056;2022-11-21T08:55:15;3.60;99.90
34147;DHT22;20423;49.448;9.056;2022-11-21T09:01:28;3.70;99.90
34147;DHT22;20423;49.448;9.056;2022-11-21T09:03:54;3.60;99.90
34147;DHT22;20423;49.448;9.056;2022-11-21T09:06:20;3.60;99.90
34147;DHT22;20423;49.448;9.056;2022-11-21T09:08:45;3.50;99.90
34147;DHT22;20423;49.448;9.056;2022-11-21T09:11:33;3.60;99.90
34147;DHT22;20423;49.448;9.056;2022-11-21T09:13:59;3.60;99.90
34147;DHT22;20423;49.448;9.056;2022-11-21T09:16:44;3.70;99.90
34147;DHT22;20423;49.448;9.056;2022-11-21T09:19:28;3.80;99.90
34147;DHT22;20423;49.448;9.056;2022-11-21T09:21:54;3.90;99.90
34147;DHT22;20423;49.448;9.056;2022-11-21T09:24:20;3.90;99.90
34147;DHT22;20423;49.448;9.056;2022-11-21T09:26:46;4.00;99.90
34147;DHT22;20423;49.448;9.056;2022-11-21T09:29:13;4.10;99.90
34147;DHT22;20423;49.448;9.056;2022-11-21T09:31:42;4.10;99.90
34147;DHT22;20423;49.448;9.056;2022-11-21T09:34:07;4.30;99.90
34147;DHT22;20423;49.448;9.056;2022-11-21T09:36:33;4.50;99.90
34147;DHT22;20423;49.448;9.056;2022-11-21T09:38:59;4.50;99.90
34147;DHT22;20423;49.448;9.056;2022-11-21T09:41:36;4.40;99.90
34147;DHT22;20423;49.448;9.056;2022-11-21T09:46:48;4.30;99.90
34147;DHT22;20423;49.448;9.056;2022-11-21T09:49:21;4.30;99.90
34147;DHT22;20423;49.448;9.056;2022-11-21T09:51:50;4.30;99.90
34147;DHT22;20423;49.448;9.056;2022-11-21T09:54:29;4.20;99.90
34147;DHT22;20423;49.448;9.056;2022-11-21T09:57:02;4.20;99.90
34147;DHT22;20423;49.448;9.056;2022-11-21T09:59:33;4.30;99.90
34147;DHT22;20423;49.448;9.056;2022-11-21T10:01:59;4.20;99.90
34147;DHT22;20423;49.448;9.056;2022-11-21T10:04:26;4.20;99.90
34147;DHT22;20423;49.448;9.056;2022-11-21T10:06:57;4.20;99.90
34147;DHT22;20423;49.448;9.056;2022-11-21T10:15:28;4.70;99.90
34147;DHT22;20423;49.448;9.056;2022-11-21T10:28:38;4.70;99.90
34147;DHT22;20423;49.448;9.056;2022-11-21T10:31:09;4.80;99.90
34147;DHT22;20423;49.448;9.056;2022-11-21T10:33:35;4.70;99.90
34147;DHT22;20423;49.448;9.056;2022-11-21T10:36:40;4.70;99.90
34147;DHT22;20423;49.448;9.056;2022-11-21T10:39:16;5.00;99.90
34147;DHT22;20423;49.448;9.056;2022-11-21T10:42:04;5.20;99.90
34147;DHT22;20423;49.448;9.056;2022-11-21T10:44:33;5.70;99.90
34147;DHT22;20423;49.448;9.056;2022-11-21T10:47:21;6.00;99.90
34147;DHT22;20423;49.448;9.056;2022-11-21T10:52:43;6.60;99.90
34147;DHT22;20423;49.448;9.056;2022-11-21T10:55:11;6.80;99.90
34147;DHT22;20423;49.448;9.056;2022-11-21T10:57:50;6.50;99.90
34147;DHT22;20423;49.448;9.056;2022-11-21T11:00:25;6.20;99.90
34147;DHT22;20423;49.448;9.056;2022-11-21T11:05:25;5.70;99.90
34147;DHT22;20423;49.448;9.056;2022-11-21T11:08:06;5.60;99.90
34147;DHT22;20423;49.448;9.056;2022-11-21T11:10:38;5.70;99.90
34147;DHT22;20423;49.448;9.056;2022-11-21T11:13:16;6.00;99.90
34147;DHT22;20423;49.448;9.056;2022-11-21T11:18:58;5.80;99.90
34147;DHT22;20423;49.448;9.056;2022-11-21T11:21:27;5.60;99.90
34147;DHT22;20423;49.448;9.056;2022-11-21T11:24:04;5.70;99.90
34147;DHT22;20423;49.448;9.056;2022-11-21T11:26:31;6.10;99.90
34147;DHT22;20423;49.448;9.056;2022-11-21T11:34:39;5.60;99.90
34147;DHT22;20423;49.448;9.056;2022-11-21T11:37:33;5.50;99.90
34147;DHT22;20423;49.448;9.056;2022-11-21T11:48:29;4.90;99.90
34147;DHT22;20423;49.448;9.056;2022-11-21T11:51:00;4.80;99.90
34147;DHT22;20423;49.448;9.056;2022-11-21T11:53:34;4.70;99.90
34147;DHT22;20423;49.448;9.056;2022-11-21T11:56:15;4.50;99.90
34147;DHT22;20423;49.448;9.056;2022-11-21T12:05:49;4.40;99.90
34147;DHT22;20423;49.448;9.056;2022-11-21T12:08:22;4.40;99.90
34147;DHT22;20423;49.448;9.056;2022-11-21T12:10:55;4.40;99.90
34147;DHT22;20423;49.448;9.056;2022-11-21T12:13:41;4.40;99.90
34147;DHT22;20423;49.448;9.056;2022-11-21T12:16:11;4.30;99.90
34147;DHT22;20423;49.448;9.056;2022-11-21T12:18:51;4.30;99.90
34147;DHT22;20423;49.448;9.056;2022-11-21T12:21:19;4.30;99.90
34147;DHT22;20423;49.448;9.056;2022-11-21T12:23:49;4.20;99.90
34147;DHT22;20423;49.448;9.056;2022-11-21T12:40:11;3.90;99.90
34147;DHT22;20423;49.448;9.056;2022-11-21T12:45:28;3.80;99.90
34147;DHT22;20423;49.448;9.056;2022-11-21T12:48:04;3.90;99.90
34147;DHT22;20423;49.448;9.056;2022-11-21T12:54:01;4.20;99.90
34147;DHT22;20423;49.448;9.056;2022-11-21T12:57:01;4.30;99.90
34147;DHT22;20423;49.448;9.056;2022-11-21T12:59:30;4.60;99.90
34147;DHT22;20423;49.448;9.056;2022-11-21T13:02:06;4.80;99.90
34147;DHT22;20423;49.448;9.056;2022-11-21T13:04:37;5.00;99.90
34147;DHT22;20423;49.448;9.056;2022-11-21T13:07:05;5.20;99.90
34147;DHT22;20423;49.448;9.056;2022-11-21T13:09:38;5.30;99.90
34147;DHT22;20423;49.448;9.056;2022-11-21T13:18:14;5.40;99.90
34147;DHT22;20423;49.448;9.056;2022-11-21T13:20:49;5.50;99.90
34147;DHT22;20423;49.448;9.056;2022-11-21T13:26:01;6.10;99.90
34147;DHT22;20423;49.448;9.056;2022-11-21T13:28:31;6.00;99.90
34147;DHT22;20423;49.448;9.056;2022-11-21T13:31:00;5.80;99.90
34147;DHT22;20423;49.448;9.056;2022-11-21T13:38:30;5.10;99.90
34147;DHT22;20423;49.448;9.056;2022-11-21T13:40:57;5.10;99.90
34147;DHT22;20423;49.448;9.056;2022-11-21T13:43:41;5.10;99.90
34147;DHT22;20423;49.448;9.056;2022-11-21T13:46:07;5.10;99.90
34147;DHT22;20423;49.448;9.056;2022-11-21T13:54:15;5.10;99.90
34147;DHT22;20423;49.448;9.056;2022-11-21T14:07:39;5.50;99.90
34147;DHT22;20423;49.448;9.056;2022-11-21T14:12:50;5.70;99.90
34147;DHT22;20423;49.448;9.056;2022-11-21T14:15:19;5.70;99.90
34147;DHT22;20423;49.448;9.056;2022-11-21T14:17:48;5.80;99.90
34147;DHT22;20423;49.448;9.056;2022-11-21T14:20:16;5.80;99.90
34147;DHT22;20423;49.448;9.056;2022-11-21T14:22:56;5.90;99.90
34147;DHT22;20423;49.448;9.056;2022-11-21T14:25:35;5.90;99.90
34147;DHT22;20423;49.448;9.056;2022-11-21T14:28:04;5.90;99.90
34147;DHT22;20423;49.448;9.056;2022-11-21T14:36:36;5.90;99.90
34147;DHT22;20423;49.448;9.056;2022-11-21T14:46:34;5.60;99.90
34147;DHT22;20423;49.448;9.056;2022-11-21T14:49:26;5.30;99.90
34147;DHT22;20423;49.448;9.056;2022-11-21T14:51:58;5.10;99.90
34147;DHT22;20423;49.448;9.056;2022-11-21T14:54:29;4.90;99.90
34147;DHT22;20423;49.448;9.056;2022-11-21T14:57:19;4.80;99.90
34147;DHT22;20423;49.448;9.056;2022-11-21T14:59:46;4.50;99.90
34147;DHT22;20423;49.448;9.056;2022-11-21T15:02:15;4.40;99.90
34147;DHT22;20423;49.448;9.056;2022-11-21T15:04:43;4.30;99.90
34147;DHT22;20423;49.448;9.056;2022-11-21T15:07:43;4.10;99.90
34147;DHT22;20423;49.448;9.056;2022-11-21T15:10:14;4.10;99.90
34147;DHT22;20423;49.448;9.056;2022-11-21T15:18:01;3.80;99.90
34147;DHT22;20423;49.448;9.056;2022-11-21T15:20:28;3.70;99.90
34147;DHT22;20423;49.448;9.056;2022-11-21T15:22:59;3.60;99.90
34147;DHT22;20423;49.448;9.056;2022-11-21T15:25:30;3.50;99.90
34147;DHT22;20423;49.448;9.056;2022-11-21T15:30:30;3.30;99.90
34147;DHT22;20423;49.448;9.056;2022-11-21T15:43:41;2.70;99.90
34147;DHT22;20423;49.448;9.056;2022-11-21T15:48:43;2.40;99.90
34147;DHT22;20423;49.448;9.056;2022-11-21T15:51:09;2.30;99.90
34147;DHT22;20423;49.448;9.056;2022-11-21T15:56:45;2.30;99.90
34147;DHT22;20423;49.448;9.056;2022-11-21T15:59:12;2.30;99.90
34147;DHT22;20423;49.448;9.056;2022-11-21T16:01:38;2.30;99.90
34147;DHT22;20423;49.448;9.056;2022-11-21T16:04:06;2.40;99.90
34147;DHT22;20423;49.448;9.056;2022-11-21T16:06:32;2.40;99.90
34147;DHT22;20423;49.448;9.056;2022-11-21T16:09:02;2.40;99.90
34147;DHT22;20423;49.448;9.056;2022-11-21T16:11:30;2.30;99.90
34147;DHT22;20423;49.448;9.056;2022-11-21T16:13:58;2.30;99.90
34147;DHT22;20423;49.448;9.056;2022-11-21T16:16:29;2.40;99.90
34147;DHT22;20423;49.448;9.056;2022-11-21T16:18:55;2.30;99.90
34147;DHT22;20423;49.448;9.056;2022-11-21T16:21:21;2.20;99.90
34147;DHT22;20423;49.448;9.056;2022-11-21T16:23:47;2.10;99.90
34147;DHT22;20423;49.448;9.056;2022-11-21T16:26:13;2.00;99.90
34147;DHT22;20423;49.448;9.056;2022-11-21T16:28:39;2.10;99.90
34147;DHT22;20423;49.448;9.056;2022-11-21T16:31:06;2.10;99.90
34147;DHT22;20423;49.448;9.056;2022-11-21T16:33:32;2.20;99.90
34147;DHT22;20423;49.448;9.056;2022-11-21T16:35:58;2.30;99.90
34147;DHT22;20423;49.448;9.056;2022-11-21T16:38:26;2.30;99.90
34147;DHT22;20423;49.448;9.056;2022-11-21T16:41:02;2.40;99.90
34147;DHT22;20423;49.448;9.056;2022-11-21T16:43:29;2.40;99.90
34147;DHT22;20423;49.448;9.056;2022-11-21T16:46:05;2.40;99.90
34147;DHT22;20423;49.448;9.056;2022-11-21T16:48:31;2.30;99.90
34147;DHT22;20423;49.448;9.056;2022-11-21T16:51:14;2.40;99.90
34147;DHT22;20423;49.448;9.056;2022-11-21T16:53:41;2.30;99.90
34147;DHT22;20423;49.448;9.056;2022-11-21T16:56:07;2.40;99.90
34147;DHT22;20423;49.448;9.056;2022-11-21T16:58:38;2.40;99.90
34147;DHT22;20423;49.448;9.056;2022-11-21T17:01:13;2.30;99.90
34147;DHT22;20423;49.448;9.056;2022-11-21T17:03:40;2.20;99.90
34147;DHT22;20423;49.448;9.056;2022-11-21T17:06:06;2.30;99.90
34147;DHT22;20423;49.448;9.056;2022-11-21T17:08:33;2.20;99.90
34147;DHT22;20423;49.448;9.056;2022-11-21T17:11:13;2.30;99.90
34147;DHT22;20423;49.448;9.056;2022-11-21T17:13:39;2.40;99.90
34147;DHT22;20423;49.448;9.056;2022-11-21T17:16:06;2.40;99.90
34147;DHT22;20423;49.448;9.056;2022-11-21T17:18:31;2.40;99.90
34147;DHT22;20423;49.448;9.056;2022-11-21T17:21:08;2.40;99.90
34147;DHT22;20423;49.448;9.056;2022-11-21T17:23:36;2.50;99.90
34147;DHT22;20423;49.448;9.056;2022-11-21T17:26:03;2.50;99.90
34147;DHT22;20423;49.448;9.056;2022-11-21T17:28:29;2.60;99.90
34147;DHT22;20423;49.448;9.056;2022-11-21T17:30:55;2.50;99.90
34147;DHT22;20423;49.448;9.056;2022-11-21T17:33:21;2.50;99.90
34147;DHT22;20423;49.448;9.056;2022-11-21T17:35:46;2.50;99.90
34147;DHT22;20423;49.448;9.056;2022-11-21T17:38:12;2.50;99.90
34147;DHT22;20423;49.448;9.056;2022-11-21T17:40:38;2.40;99.90
34147;DHT22;20423;49.448;9.056;2022-11-21T17:43:04;2.40;99.90
34147;DHT22;20423;49.448;9.056;2022-11-21T17:45:29;2.40;99.90
34147;DHT22;20423;49.448;9.056;2022-11-21T17:47:55;2.40;99.90
34147;DHT22;20423;49.448;9.056;2022-11-21T17:50:21;2.40;99.90
34147;DHT22;20423;49.448;9.056;2022-11-21T17:52:47;2.40;99.90
34147;DHT22;20423;49.448;9.056;2022-11-21T17:55:14;2.40;99.90
34147;DHT22;20423;49.448;9.056;2022-11-21T17:57:40;2.50;99.90
34147;DHT22;20423;49.448;9.056;2022-11-21T18:00:06;2.50;99.90
34147;DHT22;20423;49.448;9.056;2022-11-21T18:02:33;2.60;99.90
34147;DHT22;20423;49.448;9.056;2022-11-21T18:04:59;2.50;99.90
34147;DHT22;20423;49.448;9.056;2022-11-21T18:07:24;2.50;99.90
34147;DHT22;20423;49.448;9.056;2022-11-21T18:09:50;2.50;99.90
34147;DHT22;20423;49.448;9.056;2022-11-21T18:12:16;2.40;99.90
34147;DHT22;20423;49.448;9.056;2022-11-21T18:14:42;2.50;99.90
34147;DHT22;20423;49.448;9.056;2022-11-21T18:17:08;2.60;99.90
34147;DHT22;20423;49.448;9.056;2022-11-21T18:19:33;2.70;99.90
34147;DHT22;20423;49.448;9.056;2022-11-21T18:21:59;2.80;99.90
34147;DHT22;20423;49.448;9.056;2022-11-21T18:24:26;2.90;99.90
34147;DHT22;20423;49.448;9.056;2022-11-21T18:26:52;3.00;99.90
34147;DHT22;20423;49.448;9.056;2022-11-21T18:29:17;3.00;99.90
34147;DHT22;20423;49.448;9.056;2022-11-21T18:31:43;3.00;99.90
34147;DHT22;20423;49.448;9.056;2022-11-21T18:34:09;2.90;99.90
34147;DHT22;20423;49.448;9.056;2022-11-21T18:36:35;2.90;99.90
34147;DHT22;20423;49.448;9.056;2022-11-21T18:39:01;3.00;99.90
34147;DHT22;20423;49.448;9.056;2022-11-21T18:41:30;3.00;99.90